createdAt,value
2023-07-25T08:03:16.085Z,16.60
2023-07-25T08:05:47.159Z,16.60
2023-07-25T08:08:25.672Z,16.60
2023-07-25T08:13:47.501Z,16.70
2023-07-25T08:16:16.625Z,16.70
2023-07-25T08:18:46.043Z,16.80
2023-07-25T08:21:18.115Z,16.80
2023-07-25T08:23:47.768Z,16.90
2023-07-25T08:26:20.602Z,17.10
2023-07-25T08:29:00.098Z,17.20
2023-07-25T08:31:32.148Z,17.30
2023-07-25T08:34:04.075Z,17.30
2023-07-25T08:36:42.287Z,17.30
2023-07-25T08:39:11.743Z,17.40
2023-07-25T08:41:48.509Z,17.60
2023-07-25T08:44:21.351Z,17.70
2023-07-25T08:46:57.762Z,18.00
2023-07-25T08:49:35.743Z,18.10
2023-07-25T08:52:09.273Z,18.30
2023-07-25T08:54:44.478Z,18.10
2023-07-25T08:57:15.690Z,17.90
2023-07-25T08:59:54.325Z,18.10
2023-07-25T09:02:35.637Z,18.40
2023-07-25T09:05:05.504Z,18.60
2023-07-25T09:07:33.792Z,18.70
2023-07-25T09:10:11.722Z,18.80
2023-07-25T09:12:45.156Z,18.80
2023-07-25T09:15:16.158Z,18.70
2023-07-25T09:17:46.094Z,18.70
2023-07-25T09:20:18.233Z,18.70
2023-07-25T09:22:58.045Z,18.50
2023-07-25T09:25:37.103Z,18.20
2023-07-25T09:28:16.674Z,18.10
2023-07-25T09:30:50.701Z,18.00
2023-07-25T09:33:34.900Z,18.00
2023-07-25T09:36:10.598Z,18.00
2023-07-25T09:39:01.378Z,18.00
2023-07-25T09:41:33.175Z,18.00
2023-07-25T09:44:07.249Z,18.00
2023-07-25T09:46:38.637Z,18.10
2023-07-25T09:49:15.201Z,17.90
2023-07-25T09:52:05.802Z,17.90
2023-07-25T09:54:37.255Z,17.90
2023-07-25T09:57:04.464Z,18.00
2023-07-25T09:59:39.162Z,18.10
2023-07-25T10:02:14.237Z,18.00
2023-07-25T10:04:44.259Z,18.00
2023-07-25T10:07:15.002Z,18.00
2023-07-25T10:09:50.883Z,17.90
2023-07-25T10:12:20.874Z,17.80
2023-07-25T10:14:54.878Z,17.60
2023-07-25T10:17:28.572Z,17.60
2023-07-25T10:20:08.686Z,17.70
2023-07-25T10:22:47.088Z,17.50
2023-07-25T10:25:37.496Z,17.40
2023-07-25T10:28:07.679Z,17.40
2023-07-25T10:30:47.526Z,17.40
2023-07-25T10:33:19.834Z,17.60
2023-07-25T10:35:56.243Z,17.70
2023-07-25T10:38:44.974Z,17.70
2023-07-25T10:41:22.338Z,17.70
2023-07-25T10:44:03.875Z,17.70
2023-07-25T10:46:36.710Z,17.90
2023-07-25T10:49:22.265Z,18.00
2023-07-25T10:52:03.207Z,18.20
2023-07-25T10:54:34.029Z,18.30
2023-07-25T10:57:24.148Z,18.40
2023-07-25T11:00:11.725Z,18.70
2023-07-25T11:02:46.562Z,18.50
2023-07-25T11:05:23.013Z,18.50
2023-07-25T11:07:58.434Z,18.60
2023-07-25T11:10:30.955Z,18.90
2023-07-25T11:13:02.524Z,19.10
2023-07-25T11:18:11.762Z,19.50
2023-07-25T11:20:44.933Z,19.70
2023-07-25T11:23:17.074Z,19.80
2023-07-25T11:26:01.041Z,19.80
2023-07-25T11:28:33.694Z,19.60
2023-07-25T11:31:01.446Z,19.60
2023-07-25T11:33:43.971Z,19.60
2023-07-25T11:36:12.823Z,19.60
2023-07-25T11:38:42.050Z,19.70
2023-07-25T11:41:13.905Z,19.90
2023-07-25T11:43:46.843Z,19.80
2023-07-25T11:46:18.748Z,19.80
2023-07-25T11:48:48.816Z,19.60
2023-07-25T11:51:19.068Z,19.50
2023-07-25T11:53:48.175Z,19.50
2023-07-25T11:56:27.125Z,19.50
2023-07-25T11:59:00.577Z,19.40
2023-07-25T12:01:37.675Z,19.30
2023-07-25T12:04:21.988Z,19.30
2023-07-25T12:07:00.910Z,19.30
2023-07-25T12:09:51.240Z,19.30
2023-07-25T12:12:25.642Z,19.30
2023-07-25T12:15:02.040Z,19.30
2023-07-25T12:17:48.785Z,19.20
2023-07-25T12:20:25.924Z,19.20
2023-07-25T12:23:07.960Z,19.10
2023-07-25T12:25:46.474Z,19.10
2023-07-25T12:28:16.349Z,18.80
2023-07-25T12:30:45.643Z,18.10
2023-07-25T12:33:13.959Z,17.80
2023-07-25T12:38:21.999Z,17.70
2023-07-25T12:41:00.606Z,17.80
2023-07-25T12:43:31.566Z,18.10
2023-07-25T12:46:00.655Z,18.30
2023-07-25T12:48:31.101Z,18.50
2023-07-25T12:51:02.227Z,18.60
2023-07-25T12:53:35.190Z,18.60
2023-07-25T12:56:05.457Z,18.60
2023-07-25T12:58:35.859Z,18.60
2023-07-25T13:01:16.022Z,18.70
2023-07-25T13:03:48.027Z,18.90
2023-07-25T13:06:19.862Z,19.20
2023-07-25T13:08:56.228Z,19.40
2023-07-25T13:11:31.081Z,19.90
2023-07-25T13:14:00.769Z,20.30
2023-07-25T13:16:31.222Z,20.40
2023-07-25T13:19:05.068Z,20.50
2023-07-25T13:21:38.746Z,20.50
2023-07-25T13:24:07.380Z,20.60
2023-07-25T13:26:39.264Z,20.70
2023-07-25T13:29:10.780Z,20.70
2023-07-25T13:31:42.434Z,20.70
2023-07-25T13:34:13.639Z,20.60
2023-07-25T13:36:43.333Z,20.70
2023-07-25T13:39:14.775Z,20.60
2023-07-25T13:41:45.799Z,20.50
2023-07-25T13:44:27.097Z,20.50
2023-07-25T13:46:58.468Z,20.50
2023-07-25T13:49:35.655Z,20.60
2023-07-25T13:52:12.867Z,20.60
2023-07-25T13:54:49.798Z,20.50
2023-07-25T13:57:18.980Z,20.30
2023-07-25T13:59:48.988Z,20.10
2023-07-25T14:02:19.488Z,20.00
2023-07-25T14:04:48.659Z,20.00
2023-07-25T14:07:26.136Z,20.20
2023-07-25T14:09:57.599Z,20.30
2023-07-25T14:12:33.143Z,20.10
2023-07-25T14:17:43.974Z,19.70
2023-07-25T14:20:15.803Z,19.80
2023-07-25T14:22:44.795Z,20.20
2023-07-25T14:25:20.850Z,20.50
2023-07-25T14:27:51.953Z,20.70
2023-07-25T14:30:19.272Z,20.80
2023-07-25T14:32:51.377Z,20.90
2023-07-25T14:35:19.049Z,21.10
2023-07-25T14:40:27.995Z,21.50
2023-07-25T14:43:05.859Z,21.20
2023-07-25T14:45:41.848Z,21.10
2023-07-25T14:48:11.585Z,21.10
2023-07-25T14:51:07.786Z,21.20
2023-07-25T14:53:38.029Z,21.40
2023-07-25T14:56:12.773Z,21.10
2023-07-25T14:58:39.838Z,21.00
2023-07-25T15:01:09.180Z,21.20
2023-07-25T15:03:37.217Z,21.50
2023-07-25T15:06:12.760Z,21.70
2023-07-25T15:08:49.168Z,21.70
2023-07-25T15:11:20.553Z,21.60
2023-07-25T15:13:58.136Z,21.60
2023-07-25T15:16:32.913Z,21.40
2023-07-25T15:19:04.341Z,21.40
2023-07-25T15:21:35.404Z,21.40
2023-07-25T15:24:06.286Z,21.30
2023-07-25T15:26:45.711Z,21.30
2023-07-25T15:29:15.423Z,21.20
2023-07-25T15:31:48.952Z,21.20
2023-07-25T15:34:19.908Z,20.90
2023-07-25T15:36:48.816Z,20.80
2023-07-25T15:39:17.453Z,20.90
2023-07-25T15:41:49.053Z,20.90
2023-07-25T15:44:18.454Z,21.00
2023-07-25T15:46:51.486Z,21.10
2023-07-25T15:49:28.825Z,21.20
2023-07-25T15:51:57.179Z,21.00
2023-07-25T15:54:28.382Z,20.70
2023-07-25T15:56:59.492Z,20.60
2023-07-25T15:59:32.937Z,20.80
2023-07-25T16:02:01.811Z,20.80
2023-07-25T16:04:32.267Z,20.60
2023-07-25T16:07:11.404Z,20.50
2023-07-25T16:09:42.441Z,20.40
2023-07-25T16:12:15.276Z,20.20
2023-07-25T16:14:44.276Z,20.20
2023-07-25T16:17:12.266Z,20.30
2023-07-25T16:19:45.552Z,20.40
2023-07-25T16:22:12.708Z,20.50
2023-07-25T16:24:42.776Z,20.60
2023-07-25T16:27:13.972Z,20.60
2023-07-25T16:29:42.375Z,20.60
2023-07-25T16:32:13.882Z,20.50
2023-07-25T16:34:46.922Z,20.60
2023-07-25T16:37:16.026Z,20.70
2023-07-25T16:39:43.137Z,20.70
2023-07-25T16:42:17.174Z,20.60
2023-07-25T16:44:52.172Z,20.50
2023-07-25T16:47:22.602Z,20.50
2023-07-25T16:49:52.846Z,20.50
2023-07-25T16:52:23.808Z,20.50
2023-07-25T16:55:02.314Z,20.70
2023-07-25T16:57:40.562Z,20.60
2023-07-25T17:00:12.522Z,20.50
2023-07-25T17:02:50.735Z,20.40
2023-07-25T17:05:21.834Z,20.20
2023-07-25T17:07:56.031Z,20.00
2023-07-25T17:10:34.234Z,19.90
2023-07-25T17:13:11.146Z,19.90
2023-07-25T17:15:40.775Z,19.90
2023-07-25T17:18:10.124Z,19.70
2023-07-25T17:20:40.574Z,19.80
2023-07-25T17:23:17.932Z,19.90
2023-07-25T17:25:45.938Z,19.90
2023-07-25T17:28:14.825Z,19.80
2023-07-25T17:30:44.355Z,19.70
2023-07-25T17:33:12.241Z,19.70
2023-07-25T17:35:44.586Z,19.70
2023-07-25T17:38:19.822Z,19.60
2023-07-25T17:40:58.013Z,19.40
2023-07-25T17:43:28.823Z,19.30
2023-07-25T17:45:57.250Z,19.20
2023-07-25T17:48:25.852Z,19.10
2023-07-25T17:50:54.772Z,19.10
2023-07-25T17:53:29.002Z,19.10
2023-07-25T17:55:57.288Z,19.20
2023-07-25T17:58:27.108Z,19.20
2023-07-25T18:00:56.945Z,19.10
2023-07-25T18:03:26.787Z,19.00
2023-07-25T18:06:03.568Z,18.90
2023-07-25T18:08:38.636Z,19.00
2023-07-25T18:11:12.939Z,19.10
2023-07-25T18:13:50.337Z,19.00
2023-07-25T18:16:21.414Z,19.00
2023-07-25T18:19:00.010Z,19.00
2023-07-25T18:21:31.067Z,18.90
2023-07-25T18:24:01.129Z,19.00
2023-07-25T18:26:32.089Z,19.10
2023-07-25T18:29:02.780Z,19.10
2023-07-25T18:31:33.737Z,19.10
2023-07-25T18:34:02.749Z,19.00
2023-07-25T18:36:38.658Z,18.90
2023-07-25T18:39:10.281Z,18.70
2023-07-25T18:41:41.460Z,18.70
2023-07-25T18:44:10.960Z,18.60
2023-07-25T18:46:38.777Z,18.50
2023-07-25T18:49:17.183Z,18.60
2023-07-25T18:51:53.391Z,18.60
2023-07-25T18:54:25.896Z,18.50
2023-07-25T18:56:58.436Z,18.80
2023-07-25T18:59:28.371Z,18.90
2023-07-25T19:01:59.047Z,18.90
2023-07-25T19:04:35.783Z,18.90
2023-07-25T19:07:04.655Z,18.80
2023-07-25T19:09:43.802Z,18.70
2023-07-25T19:12:13.922Z,18.80
2023-07-25T19:14:43.472Z,18.70
2023-07-25T19:17:13.362Z,18.50
2023-07-25T19:19:50.930Z,18.40
2023-07-25T19:22:20.290Z,18.50
2023-07-25T19:24:50.724Z,18.50
2023-07-25T19:27:24.379Z,18.40
2023-07-25T19:29:52.286Z,18.30
2023-07-25T19:32:20.966Z,18.20
2023-07-25T19:34:49.969Z,18.20
2023-07-25T19:37:21.302Z,18.20
2023-07-25T19:39:54.161Z,18.20
2023-07-25T19:42:23.742Z,18.20
2023-07-25T19:44:52.223Z,18.00
2023-07-25T19:47:19.441Z,18.00
2023-07-25T19:49:48.471Z,17.90
2023-07-25T19:52:18.964Z,17.90
2023-07-25T19:54:52.894Z,17.90
2023-07-25T19:57:20.781Z,17.90
2023-07-25T19:59:52.370Z,17.90
2023-07-25T20:02:22.488Z,17.90
2023-07-25T20:04:59.590Z,17.80
2023-07-25T20:07:32.639Z,17.80
2023-07-25T20:09:59.929Z,17.70
2023-07-25T20:12:30.317Z,17.70
2023-07-25T20:15:01.206Z,17.70
2023-07-25T20:17:35.462Z,17.70
2023-07-25T20:20:05.806Z,17.60
2023-07-25T20:22:35.992Z,17.70
2023-07-25T20:25:04.917Z,17.80
2023-07-25T20:27:35.602Z,17.80
2023-07-25T20:30:10.244Z,17.60
2023-07-25T20:32:40.856Z,17.50
2023-07-25T20:35:12.140Z,17.50
2023-07-25T20:37:45.728Z,17.40
2023-07-25T20:40:14.515Z,17.30
2023-07-25T20:42:44.406Z,17.30
2023-07-25T20:45:29.440Z,17.20
2023-07-25T20:47:59.559Z,17.20
2023-07-25T20:50:33.553Z,17.10
2023-07-25T20:53:04.495Z,17.00
2023-07-25T20:55:35.082Z,17.00
2023-07-25T20:58:14.828Z,17.00
2023-07-25T21:00:45.409Z,17.00
2023-07-25T21:03:15.758Z,17.00
2023-07-25T21:05:45.000Z,17.00
2023-07-25T21:08:21.607Z,17.00
2023-07-25T21:10:51.265Z,17.00
2023-07-25T21:13:20.302Z,17.00
2023-07-25T21:15:57.627Z,17.10
2023-07-25T21:18:28.861Z,17.00
2023-07-25T21:21:09.044Z,16.90
2023-07-25T21:23:40.598Z,16.80
2023-07-25T21:26:11.569Z,16.80
2023-07-25T21:28:41.073Z,16.80
2023-07-25T21:31:15.039Z,16.90
2023-07-25T21:33:44.614Z,16.80
2023-07-25T21:36:20.464Z,16.80
2023-07-25T21:39:12.140Z,16.80
2023-07-25T21:41:41.559Z,16.80
2023-07-25T21:46:55.688Z,17.00
2023-07-25T21:49:28.318Z,16.90
2023-07-25T21:51:57.096Z,17.00
2023-07-25T21:54:34.025Z,16.90
2023-07-25T21:57:03.742Z,17.00
2023-07-25T21:59:41.215Z,16.80
2023-07-25T22:02:29.621Z,16.80
2023-07-25T22:05:01.571Z,17.00
2023-07-25T22:07:38.374Z,17.10
2023-07-25T22:10:10.903Z,17.00
2023-07-25T22:12:41.563Z,17.10
2023-07-25T22:15:13.934Z,16.90
2023-07-25T22:17:42.742Z,17.00
2023-07-25T22:20:19.333Z,17.00
2023-07-25T22:22:55.597Z,16.80
2023-07-25T22:25:27.609Z,16.60
2023-07-25T22:27:59.888Z,16.30
2023-07-25T22:30:28.777Z,16.30
2023-07-25T22:32:58.263Z,16.30
2023-07-25T22:35:32.203Z,16.20
2023-07-25T22:38:19.799Z,16.00
2023-07-25T22:40:47.329Z,16.20
2023-07-25T22:43:17.053Z,16.20
2023-07-25T22:45:51.337Z,16.00
2023-07-25T22:48:27.381Z,15.90
2023-07-25T22:50:58.316Z,16.00
2023-07-25T22:53:35.454Z,16.20
2023-07-25T22:56:10.980Z,16.20
2023-07-25T22:58:41.775Z,16.20
2023-07-25T23:01:18.149Z,16.20
2023-07-25T23:03:45.597Z,16.20
2023-07-25T23:06:23.224Z,16.20
2023-07-25T23:08:52.298Z,16.10
2023-07-25T23:11:29.409Z,16.10
2023-07-25T23:14:06.531Z,16.00
2023-07-25T23:16:35.288Z,16.10
2023-07-25T23:19:03.865Z,16.10
2023-07-25T23:21:33.945Z,16.00
2023-07-25T23:24:10.138Z,16.00
2023-07-25T23:26:40.228Z,16.10
2023-07-25T23:29:18.133Z,16.10
2023-07-25T23:31:54.158Z,16.40
2023-07-25T23:34:21.480Z,16.40
2023-07-25T23:36:50.983Z,16.30
2023-07-25T23:39:20.565Z,16.20
2023-07-25T23:41:51.516Z,16.10
2023-07-25T23:44:22.062Z,16.00
2023-07-25T23:46:51.689Z,16.00
2023-07-25T23:49:30.365Z,16.00
2023-07-25T23:51:59.128Z,16.00
2023-07-25T23:54:28.068Z,16.00
2023-07-25T23:56:58.212Z,16.00
2023-07-25T23:59:35.793Z,16.00
